Machadinho, Brazil
Current Conditions -  °F | °C
As of 3:00 PM on Friday 19 Dec 2014 (Local Time) from SBCH Reporting Station
Scattered Clouds Scattered Clouds  
Wind Chill: 88°   Ceiling: Unl
Heat Index: 90°   Visibility: 6mi
Dew Point: 66°   Wind: 9mph
Humidity: 49%   Direction: 270°W
Pressure: 29.8"   Gusts: NA
Location:  27.57°S, 51.67°W
Report Text: SBCH 191700Z 27008KT 9999 SCT040 31/19 Q1009
Loading
Personal Weather Stations






























Interactive Weather Map New forecast layout! Learn more

10-Day Weather Forecast

Advertisements
Track Severe Weather on mobile